Time;durP1;ratioP1;P1;durP2;ratioP2;P2;SDS_P1;SDS_P2;PMS_P1;PMS_P2;Temp;Humidity;BMP_temperature;BMP_pressure;BME280_temperature;BME280_humidity;BME280_pressure;Samples;Min_cycle;Max_cycle;Signal;HPM_P1;HPM_P2
2023/04/14 00:03:06;;;;;;;;;;;;;;;3.30;100.00;97042.13;18302384;32;19960;-58
2023/04/14 00:13:09;;;;;;;;;;;;;;;3.00;100.00;97055.69;18301841;32;20016;-58
2023/04/14 00:23:11;;;;;;;;;;;;;;;2.77;100.00;97043.19;18301454;32;19953;-57
2023/04/14 00:33:14;;;;;;;;;;;;;;;2.51;100.00;97034.66;18300890;32;20005;-58
2023/04/14 00:43:18;;;;;;;;;;;;;;;2.24;100.00;97026.31;18300624;32;20000;-57
2023/04/14 00:53:20;;;;;;;;;;;;;;;2.00;100.00;97029.78;18285916;32;19946;-57
2023/04/14 01:03:25;;;;;;;;;;;;;;;1.81;100.00;97036.22;18285304;32;19949;-58
2023/04/14 01:13:34;;;;;;;;;;;;;;;1.74;100.00;97041.69;18299106;32;19954;-59
2023/04/14 01:23:40;;;;;;;;;;;;;;;1.64;100.00;97042.22;18298325;32;19976;-58
2023/04/14 01:33:42;;;;;;;;;;;;;;;1.57;100.00;97041.50;18298085;32;20234;-58
2023/04/14 01:43:49;;;;;;;;;;;;;;;1.66;100.00;97048.16;18297466;32;19960;-59
2023/04/14 01:53:54;;;;;;;;;;;;;;;1.92;100.00;97042.63;18296535;32;19953;-58
2023/04/14 02:03:57;;;;;;;;;;;;;;;1.93;100.00;97042.38;18296799;32;20005;-59
2023/04/14 02:14:01;;;;;;;;;;;;;;;1.80;100.00;97038.09;18282940;32;19934;-59
2023/04/14 02:24:03;;;;;;;;;;;;;;;1.63;100.00;97039.78;18282159;32;19950;-58
2023/04/14 02:34:07;;;;;;;;;;;;;;;1.41;100.00;97047.50;18295325;32;19942;-59
2023/04/14 02:44:16;;;;;;;;;;;;;;;1.19;100.00;97055.97;18294335;32;20001;-59
2023/04/14 02:54:19;;;;;;;;;;;;;;;1.05;100.00;97063.31;18294267;32;19961;-58
2023/04/14 03:04:22;;;;;;;;;;;;;;;0.93;100.00;97079.25;18289903;32;20382;-58
2023/04/14 03:14:28;;;;;;;;;;;;;;;0.83;100.00;97081.59;18304970;32;19945;-56
2023/04/14 03:24:33;;;;;;;;;;;;;;;0.72;100.00;97085.00;18304689;32;19984;-58
2023/04/14 03:34:40;;;;;;;;;;;;;;;0.60;100.00;97075.06;18304021;32;19949;-59
2023/04/14 03:44:48;;;;;;;;;;;;;;;0.56;100.00;97070.41;18302796;32;19949;-58
2023/04/14 03:54:53;;;;;;;;;;;;;;;0.53;100.00;97076.19;18289042;32;19964;-58
2023/04/14 04:04:56;;;;;;;;;;;;;;;0.71;100.00;97080.69;18302283;32;19953;-58
2023/04/14 04:15:00;;;;;;;;;;;;;;;0.99;100.00;97086.31;18301577;32;19996;-58
2023/04/14 04:25:03;;;;;;;;;;;;;;;1.17;100.00;97098.81;18301368;32;20001;-56
2023/04/14 04:35:07;;;;;;;;;;;;;;;1.24;100.00;97106.72;18287290;32;19960;-59
2023/04/14 04:45:10;;;;;;;;;;;;;;;1.32;100.00;97106.41;18299911;32;19953;-58
2023/04/14 04:55:13;;;;;;;;;;;;;;;1.46;100.00;97115.03;18299973;32;19965;-58
2023/04/14 05:05:15;;;;;;;;;;;;;;;1.66;100.00;97124.62;18299474;32;20275;-58
2023/04/14 05:15:18;;;;;;;;;;;;;;;1.86;100.00;97125.16;18285488;32;20395;-58
2023/04/14 05:25:21;;;;;;;;;;;;;;;2.20;100.00;97146.78;18297322;32;20347;-58
2023/04/14 05:35:24;;;;;;;;;;;;;;;2.50;100.00;97142.44;18297883;32;19949;-58
2023/04/14 05:45:27;;;;;;;;;;;;;;;2.77;100.00;97149.97;18297380;32;19977;-59
2023/04/14 05:55:29;;;;;;;;;;;;;;;3.12;100.00;97149.94;18283460;32;19945;-59
2023/04/14 06:05:32;;;;;;;;;;;;;;;3.85;100.00;97160.19;18296395;32;19967;-59
2023/04/14 06:15:35;;;;;;;;;;;;;;;4.21;100.00;97160.84;18296117;32;20242;-59
2023/04/14 06:25:37;;;;;;;;;;;;;;;4.43;100.00;97170.81;18295520;32;19953;-58
2023/04/14 06:35:40;;;;;;;;;;;;;;;4.78;100.00;97164.44;18294594;32;19982;-59
2023/04/14 06:45:42;;;;;;;;;;;;;;;5.45;100.00;97150.06;18230736;32;19949;-59
2023/04/14 06:55:45;;;;;;;;;;;;;;;5.74;100.00;97137.25;18232250;32;20261;-59
2023/04/14 07:05:47;;;;;;;;;;;;;;;6.00;100.00;97145.63;18230140;32;19998;-59
2023/04/14 07:15:50;;;;;;;;;;;;;;;6.27;100.00;97139.41;18229736;32;19960;-59
2023/04/14 07:25:53;;;;;;;;;;;;;;;6.77;100.00;97121.28;18228422;32;19954;-59
2023/04/14 07:35:59;;;;;;;;;;;;;;;7.24;100.00;97117.75;18230110;32;19954;-59
2023/04/14 07:46:05;;;;;;;;;;;;;;;7.67;100.00;97109.56;18288798;32;20321;-59
2023/04/14 07:56:10;;;;;;;;;;;;;;;8.21;100.00;97104.81;18302836;32;20325;-59
2023/04/14 08:06:12;;;;;;;;;;;;;;;8.59;100.00;97106.22;18288681;32;19965;-58
2023/04/14 08:16:15;;;;;;;;;;;;;;;8.95;97.36;97097.25;18287678;32;19945;-58
2023/04/14 08:26:18;;;;;;;;;;;;;;;9.34;95.84;97093.88;18301228;32;19942;-58
2023/04/14 08:36:20;;;;;;;;;;;;;;;9.93;95.47;97094.12;18300827;32;19956;-59
2023/04/14 08:46:23;;;;;;;;;;;;;;;10.57;90.89;97089.63;18223436;32;19962;-59
2023/04/14 08:56:29;;;;;;;;;;;;;;;11.09;88.52;97079.09;18237010;32;19957;-59
2023/04/14 09:06:32;;;;;;;;;;;;;;;11.33;79.20;97086.38;18236015;32;19968;-59
2023/04/14 09:16:35;;;;;;;;;;;;;;;11.81;76.61;97085.50;18236302;32;19938;-59
2023/04/14 09:26:37;;;;;;;;;;;;;;;11.80;80.23;97081.19;18235830;32;20000;-59
2023/04/14 09:36:40;;;;;;;;;;;;;;;11.43;68.55;97070.03;18235155;32;19953;-59
2023/04/14 09:46:59;;;;;;;;;;;;;;;11.46;81.43;97064.03;18294245;32;19991;-59
2023/04/14 09:57:02;;;;;;;;;;;;;;;11.79;74.82;97064.13;18296914;32;19977;-59
2023/04/14 10:07:11;;;;;;;;;;;;;;;13.10;69.91;97067.97;18295492;32;20396;-60
2023/04/14 10:17:13;;;;;;;;;;;;;;;14.16;56.86;97057.03;18296490;32;19990;-59
2023/04/14 10:27:16;;;;;;;;;;;;;;;14.12;54.23;97034.28;18295482;32;19985;-57
2023/04/14 10:37:20;;;;;;;;;;;;;;;14.78;56.38;97031.03;18281081;32;19950;-56
2023/04/14 10:47:23;;;;;;;;;;;;;;;15.63;54.61;97023.75;18281497;32;19953;-57
2023/04/14 10:57:26;;;;;;;;;;;;;;;15.71;50.74;96998.44;18294467;32;19977;-57
2023/04/14 11:07:30;;;;;;;;;;;;;;;16.14;49.00;97005.81;18280869;32;19953;-57
2023/04/14 11:17:36;;;;;;;;;;;;;;;16.53;47.67;96995.00;18280844;32;19985;-57
2023/04/14 11:27:39;;;;;;;;;;;;;;;15.92;47.52;96983.09;18304211;32;19953;-57
2023/04/14 11:37:41;;;;;;;;;;;;;;;15.68;50.52;96966.38;18303501;32;20303;-57
2023/04/14 11:47:47;;;;;;;;;;;;;;;15.69;47.78;96959.78;18289214;32;19954;-57
2023/04/14 11:57:50;;;;;;;;;;;;;;;16.47;42.39;96942.50;18302937;32;19954;-57
2023/04/14 12:07:57;;;;;;;;;;;;;;;17.23;41.04;96923.72;18302219;32;20360;-57
2023/04/14 12:18:00;;;;;;;;;;;;;;;17.39;40.13;96910.25;18301997;32;19949;-57
2023/04/14 12:28:05;;;;;;;;;;;;;;;17.34;43.07;96905.00;18287200;32;20283;-57
2023/04/14 12:38:09;;;;;;;;;;;;;;;17.89;42.08;96892.94;18300177;32;19960;-57
2023/04/14 12:48:12;;;;;;;;;;;;;;;18.29;42.04;96880.62;18300210;32;19949;-57
2023/04/14 12:58:15;;;;;;;;;;;;;;;18.28;40.77;96855.22;18299583;32;19991;-57
2023/04/14 13:08:17;;;;;;;;;;;;;;;18.91;39.96;96851.34;18298713;32;19972;-57
2023/04/14 13:18:20;;;;;;;;;;;;;;;19.26;35.46;96830.84;18298907;32;19946;-58
2023/04/14 13:28:23;;;;;;;;;;;;;;;19.50;36.29;96810.75;18298256;32;19958;-57
2023/04/14 13:38:26;;;;;;;;;;;;;;;20.27;36.72;96792.37;18297640;32;19948;-57
2023/04/14 13:48:30;;;;;;;;;;;;;;;20.97;33.70;96794.38;18282866;32;19958;-57
2023/04/14 13:58:32;;;;;;;;;;;;;;;21.04;32.38;96773.72;18296805;32;19968;-57
2023/04/14 14:08:36;;;;;;;;;;;;;;;21.16;29.08;96765.31;18282513;32;19972;-57
2023/04/14 14:18:40;;;;;;;;;;;;;;;19.68;31.40;96747.34;18269739;32;20016;-57
2023/04/14 14:28:44;;;;;;;;;;;;;;;19.09;32.31;96733.25;18295529;32;19968;-57
2023/04/14 14:38:46;;;;;;;;;;;;;;;19.74;34.70;96711.09;18281125;32;19989;-57
2023/04/14 14:48:48;;;;;;;;;;;;;;;20.22;31.08;96711.09;18294887;32;19964;-57
2023/04/14 14:58:51;;;;;;;;;;;;;;;19.66;32.24;96697.56;18302428;32;20009;-57
2023/04/14 15:08:54;;;;;;;;;;;;;;;18.90;30.64;96690.88;18305196;32;20381;-57
2023/04/14 15:18:57;;;;;;;;;;;;;;;18.44;31.54;96676.63;18290939;32;19969;-57
2023/04/14 15:29:01;;;;;;;;;;;;;;;18.77;32.89;96681.91;18290571;32;20013;-57
2023/04/14 15:39:03;;;;;;;;;;;;;;;19.00;34.34;96666.88;18289209;32;19949;-57
2023/04/14 15:49:05;;;;;;;;;;;;;;;18.49;30.60;96665.44;18303461;32;20381;-58
2023/04/14 15:59:09;;;;;;;;;;;;;;;18.07;33.41;96663.00;18288622;32;20265;-57
2023/04/14 16:09:12;;;;;;;;;;;;;;;18.15;31.71;96664.03;18301545;32;19950;-57
2023/04/14 16:19:15;;;;;;;;;;;;;;;18.28;32.97;96655.47;18302455;32;19941;-58
2023/04/14 16:29:17;;;;;;;;;;;;;;;17.66;31.26;96642.97;18287639;32;19949;-57
2023/04/14 16:39:21;;;;;;;;;;;;;;;17.09;35.05;96656.31;18286910;32;19961;-57
2023/04/14 16:49:24;;;;;;;;;;;;;;;16.63;33.52;96661.69;18300308;32;19949;-57
2023/04/14 16:59:26;;;;;;;;;;;;;;;17.41;35.44;96664.78;18286068;32;19945;-57
2023/04/14 17:09:29;;;;;;;;;;;;;;;18.04;36.87;96650.81;18285650;32;19945;-57
2023/04/14 17:19:31;;;;;;;;;;;;;;;16.61;39.02;96653.06;18298690;32;20261;-57
2023/04/14 17:29:34;;;;;;;;;;;;;;;15.00;43.06;96645.53;18298518;32;19953;-57
2023/04/14 17:39:36;;;;;;;;;;;;;;;13.63;47.34;96642.09;18271618;32;19945;-57
2023/04/14 17:49:39;;;;;;;;;;;;;;;12.56;50.17;96630.22;18297173;32;20198;-57
2023/04/14 17:59:43;;;;;;;;;;;;;;;11.63;52.86;96624.09;18297330;32;20062;-57
2023/04/14 18:09:46;;;;;;;;;;;;;;;10.84;56.74;96621.25;18296702;32;20287;-57
2023/04/14 18:19:48;;;;;;;;;;;;;;;10.13;62.43;96623.97;18295984;32;20298;-57
2023/04/14 18:29:53;;;;;;;;;;;;;;;9.50;68.02;96614.31;18281482;32;19954;-57
2023/04/14 18:39:55;;;;;;;;;;;;;;;8.87;71.52;96618.78;18294845;32;20325;-57
2023/04/14 18:49:59;;;;;;;;;;;;;;;8.37;74.73;96636.94;18295061;32;19992;-57
2023/04/14 19:00:01;;;;;;;;;;;;;;;7.94;79.45;96630.22;18268141;32;19999;-57
2023/04/14 19:10:04;;;;;;;;;;;;;;;7.66;85.56;96645.19;18280420;32;19957;-57
2023/04/14 19:20:07;;;;;;;;;;;;;;;7.45;91.67;96647.97;18293812;32;19963;-57
2023/04/14 19:30:10;;;;;;;;;;;;;;;7.37;96.20;96656.59;18293462;32;20304;-57
2023/04/14 19:40:13;;;;;;;;;;;;;;;7.31;100.00;96668.44;18294289;32;19972;-57
2023/04/14 19:50:15;;;;;;;;;;;;;;;7.33;100.00;96665.47;18289583;32;19957;-57
2023/04/14 20:00:19;;;;;;;;;;;;;;;7.37;100.00;96675.44;18289177;32;19989;-56
2023/04/14 20:10:21;;;;;;;;;;;;;;;7.38;100.00;96679.72;18302442;32;19950;-57
2023/04/14 20:20:24;;;;;;;;;;;;;;;7.34;100.00;96692.09;18302002;32;19945;-57
2023/04/14 20:30:28;;;;;;;;;;;;;;;7.36;100.00;96692.63;18287971;32;20012;-56
2023/04/14 20:40:32;;;;;;;;;;;;;;;7.33;100.00;96698.56;18300955;32;19974;-56
2023/04/14 20:50:34;;;;;;;;;;;;;;;7.21;100.00;96698.84;18299994;32;19941;-56
2023/04/14 21:00:37;;;;;;;;;;;;;;;7.20;100.00;96702.63;18286191;32;19965;-57
2023/04/14 21:10:40;;;;;;;;;;;;;;;7.25;100.00;96704.47;18299449;32;19953;-57
2023/04/14 21:21:03;;;;;;;;;;;;;;;7.27;100.00;96705.81;18298799;32;19991;-57
2023/04/14 21:31:06;;;;;;;;;;;;;;;7.23;100.00;96710.13;18298583;32;20231;-57
2023/04/14 21:41:09;;;;;;;;;;;;;;;7.24;100.00;96710.94;18283758;32;19946;-57
2023/04/14 21:51:11;;;;;;;;;;;;;;;7.28;100.00;96712.81;18297193;32;20040;-57
2023/04/14 22:01:14;;;;;;;;;;;;;;;7.26;100.00;96714.97;18283262;32;19996;-56
2023/04/14 22:11:18;;;;;;;;;;;;;;;7.16;100.00;96727.62;18296516;32;20002;-56
2023/04/14 22:21:20;;;;;;;;;;;;;;;7.08;100.00;96724.41;18296136;32;19988;-56
2023/04/14 22:31:26;;;;;;;;;;;;;;;7.06;100.00;96731.94;18296270;32;19958;-57
2023/04/14 22:41:29;;;;;;;;;;;;;;;7.00;100.00;96733.00;18295151;32;19949;-56
2023/04/14 22:51:31;;;;;;;;;;;;;;;6.96;100.00;96726.56;18294786;32;20361;-57
2023/04/14 23:01:33;;;;;;;;;;;;;;;6.93;100.00;96732.47;18280854;32;19949;-57
2023/04/14 23:11:36;;;;;;;;;;;;;;;6.97;100.00;96733.56;18294877;32;19984;-56
2023/04/14 23:21:38;;;;;;;;;;;;;;;7.00;100.00;96742.97;18303538;32;19949;-57
2023/04/14 23:31:40;;;;;;;;;;;;;;;7.05;100.00;96741.06;18304606;32;20013;-56
2023/04/14 23:41:43;;;;;;;;;;;;;;;7.03;100.00;96740.56;18290217;32;19953;-57
2023/04/14 23:51:45;;;;;;;;;;;;;;;7.02;100.00;96748.88;18303578;32;20333;-57
